Time;durP1;ratioP1;P1;durP2;ratioP2;P2;SDS_P1;SDS_P2;PMS_P1;PMS_P2;Temp;Humidity;BMP_temperature;BMP_pressure;BME280_temperature;BME280_humidity;BME280_pressure;Samples;Min_cycle;Max_cycle;Signal;HPM_P1;HPM_P2
2022/08/28 00:01:08;;;;;;;10.93;3.78;;;;;;;;;;4983832;28;20137;-75
2022/08/28 00:03:34;;;;;;;12.98;4.05;;;;;;;;;;4974840;28;20405;-74
2022/08/28 00:06:01;;;;;;;7.25;2.78;;;;;;;;;;4979856;28;20109;-73
2022/08/28 00:08:29;;;;;;;9.40;4.25;;;;;;;;;;4972166;28;20026;-74
2022/08/28 00:10:55;;;;;;;15.00;3.95;;;;;;;;;;4980668;28;20062;-74
2022/08/28 00:13:22;;;;;;;11.85;4.57;;;;;;;;;;4985627;28;20058;-74
2022/08/28 00:15:50;;;;;;;11.57;5.22;;;;;;;;;;4973292;28;20027;-74
2022/08/28 00:18:17;;;;;;;12.27;4.85;;;;;;;;;;4970699;28;20109;-75
2022/08/28 00:20:45;;;;;;;14.35;4.18;;;;;;;;;;4978102;28;20068;-74
2022/08/28 00:23:11;;;;;;;9.68;3.92;;;;;;;;;;4990400;28;20109;-72
2022/08/28 00:25:37;;;;;;;12.20;4.75;;;;;;;;;;4984264;28;20625;-73
2022/08/28 00:28:05;;;;;;;13.55;4.95;;;;;;;;;;4980247;28;20066;-73
2022/08/28 00:30:33;;;;;;;12.02;3.90;;;;;;;;;;4985623;28;20045;-73
2022/08/28 00:33:01;;;;;;;11.57;3.55;;;;;;;;;;4970830;28;20478;-73
2022/08/28 00:35:28;;;;;;;11.35;4.15;;;;;;;;;;4975729;28;20034;-73
2022/08/28 00:37:55;;;;;;;8.45;3.40;;;;;;;;;;4969938;28;20055;-73
2022/08/28 00:40:27;;;;;;;14.07;4.22;;;;;;;;;;4975223;28;20113;-73
2022/08/28 00:42:54;;;;;;;12.10;4.18;;;;;;;;;;4970385;28;20054;-73
2022/08/28 00:45:20;;;;;;;8.45;3.78;;;;;;;;;;4976217;28;20029;-72
2022/08/28 00:47:46;;;;;;;10.70;4.00;;;;;;;;;;4975507;28;20050;-73
2022/08/28 00:50:18;;;;;;;11.13;4.20;;;;;;;;;;4973689;28;20034;-72
2022/08/28 00:52:45;;;;;;;13.05;4.72;;;;;;;;;;4971806;28;20074;-73
2022/08/28 00:55:13;;;;;;;11.52;3.75;;;;;;;;;;4972099;28;20066;-73
2022/08/28 00:57:47;;;;;;;11.82;4.38;;;;;;;;;;4979487;28;20027;-73
2022/08/28 01:00:16;;;;;;;10.65;4.35;;;;;;;;;;4973850;28;20029;-74
2022/08/28 01:02:42;;;;;;;15.30;4.07;;;;;;;;;;4989083;28;20030;-73
2022/08/28 01:05:09;;;;;;;14.65;4.30;;;;;;;;;;4987771;28;20118;-73
2022/08/28 01:07:36;;;;;;;10.23;4.05;;;;;;;;;;4978697;28;20049;-73
2022/08/28 01:10:03;;;;;;;10.75;3.90;;;;;;;;;;4970608;28;20034;-74
2022/08/28 01:12:30;;;;;;;11.77;4.28;;;;;;;;;;4978155;28;20038;-73
2022/08/28 01:14:59;;;;;;;12.43;3.80;;;;;;;;;;4989127;28;20072;-73
2022/08/28 01:17:27;;;;;;;12.77;4.07;;;;;;;;;;4976997;28;20027;-74
2022/08/28 01:19:57;;;;;;;14.27;4.47;;;;;;;;;;4988800;28;20081;-74
2022/08/28 01:22:29;;;;;;;12.18;4.20;;;;;;;;;;4976532;28;20733;-73
2022/08/28 01:24:57;;;;;;;10.48;4.32;;;;;;;;;;4989154;28;20037;-73
2022/08/28 01:27:23;;;;;;;10.68;4.07;;;;;;;;;;4980586;28;20354;-73
2022/08/28 01:29:50;;;;;;;12.38;3.80;;;;;;;;;;4969780;28;20054;-73
2022/08/28 01:32:31;;;;;;;9.45;3.63;;;;;;;;;;4979132;28;20018;-73
2022/08/28 01:34:58;;;;;;;11.27;3.63;;;;;;;;;;4971672;28;20030;-74
2022/08/28 01:37:24;;;;;;;9.25;4.07;;;;;;;;;;4985608;28;20524;-73
2022/08/28 01:39:50;;;;;;;17.92;4.15;;;;;;;;;;4976743;28;20069;-73
2022/08/28 01:42:16;;;;;;;13.20;4.32;;;;;;;;;;4979206;28;20106;-72
2022/08/28 01:44:42;;;;;;;10.63;3.92;;;;;;;;;;4978645;28;20471;-73
2022/08/28 01:47:08;;;;;;;12.30;4.40;;;;;;;;;;4977042;28;20049;-74
2022/08/28 01:49:34;;;;;;;14.40;4.13;;;;;;;;;;4984474;28;20030;-73
2022/08/28 01:52:00;;;;;;;9.80;3.63;;;;;;;;;;4990906;28;20062;-73
2022/08/28 01:54:27;;;;;;;7.75;2.95;;;;;;;;;;4981698;28;20529;-74
2022/08/28 01:56:54;;;;;;;8.43;3.85;;;;;;;;;;4991401;28;20080;-73
2022/08/28 01:59:20;;;;;;;11.95;3.72;;;;;;;;;;4980055;28;20018;-73
2022/08/28 02:01:47;;;;;;;11.18;3.92;;;;;;;;;;4975103;28;20142;-73
2022/08/28 02:04:13;;;;;;;14.80;4.70;;;;;;;;;;4983556;28;20077;-73
2022/08/28 02:06:40;;;;;;;10.07;4.18;;;;;;;;;;4973258;28;20039;-73
2022/08/28 02:09:07;;;;;;;10.07;4.03;;;;;;;;;;4987375;28;20022;-74
2022/08/28 02:11:33;;;;;;;9.32;3.40;;;;;;;;;;4992311;28;20050;-73
2022/08/28 02:14:00;;;;;;;10.25;4.00;;;;;;;;;;4987928;28;20057;-73
2022/08/28 02:16:26;;;;;;;9.93;3.80;;;;;;;;;;4972345;28;20145;-72
2022/08/28 02:18:53;;;;;;;9.68;4.30;;;;;;;;;;4986652;28;20030;-73
2022/08/28 02:21:20;;;;;;;11.27;4.72;;;;;;;;;;4975202;28;20061;-73
2022/08/28 02:23:46;;;;;;;10.13;3.70;;;;;;;;;;4979763;28;20102;-73
2022/08/28 02:26:12;;;;;;;13.77;3.95;;;;;;;;;;4992724;28;20034;-72
2022/08/28 02:28:39;;;;;;;12.25;3.85;;;;;;;;;;4986555;28;20033;-73
2022/08/28 02:31:08;;;;;;;10.55;4.07;;;;;;;;;;4972496;28;20031;-73
2022/08/28 02:33:37;;;;;;;9.98;3.60;;;;;;;;;;4977893;28;20027;-72
2022/08/28 02:36:03;;;;;;;12.25;3.55;;;;;;;;;;4973429;28;20045;-73
2022/08/28 02:38:29;;;;;;;6.75;3.50;;;;;;;;;;4975808;28;20485;-73
2022/08/28 02:40:55;;;;;;;11.48;4.40;;;;;;;;;;4972549;28;20058;-73
2022/08/28 02:43:21;;;;;;;10.93;4.45;;;;;;;;;;4973657;28;20030;-72
2022/08/28 02:45:48;;;;;;;10.00;3.90;;;;;;;;;;4983166;28;20137;-73
2022/08/28 02:48:14;;;;;;;11.07;4.40;;;;;;;;;;4975653;28;20477;-73
2022/08/28 02:50:40;;;;;;;13.13;3.65;;;;;;;;;;4983198;28;20127;-72
2022/08/28 02:53:06;;;;;;;8.68;3.65;;;;;;;;;;4971987;28;20058;-73
2022/08/28 02:55:33;;;;;;;8.70;3.45;;;;;;;;;;4974134;28;20514;-73
2022/08/28 02:57:59;;;;;;;8.60;3.70;;;;;;;;;;4992251;28;20034;-73
2022/08/28 03:00:26;;;;;;;9.57;3.33;;;;;;;;;;4980279;28;20031;-73
2022/08/28 03:02:52;;;;;;;9.82;3.65;;;;;;;;;;4990535;28;20056;-73
2022/08/28 03:05:19;;;;;;;8.05;3.25;;;;;;;;;;4982382;28;20021;-72
2022/08/28 03:07:45;;;;;;;8.05;3.70;;;;;;;;;;4987654;28;20531;-73
2022/08/28 03:10:12;;;;;;;10.82;3.58;;;;;;;;;;4984511;28;20066;-73
2022/08/28 03:12:38;;;;;;;13.10;3.47;;;;;;;;;;4986208;28;20026;-73
2022/08/28 03:15:05;;;;;;;12.95;4.10;;;;;;;;;;4986629;28;20036;-73
2022/08/28 03:17:31;;;;;;;8.70;3.67;;;;;;;;;;4983222;28;20019;-73
2022/08/28 03:19:57;;;;;;;13.13;3.67;;;;;;;;;;4989314;28;20052;-72
2022/08/28 03:25:09;;;;;;;15.52;4.72;;;;;;;;;;4977542;28;20100;-74
2022/08/28 03:27:35;;;;;;;12.60;4.15;;;;;;;;;;4977095;28;20501;-73
2022/08/28 03:30:01;;;;;;;10.07;3.70;;;;;;;;;;4957403;28;20034;-72
2022/08/28 03:32:27;;;;;;;10.40;3.92;;;;;;;;;;4979107;28;20022;-72
2022/08/28 03:34:53;;;;;;;13.60;4.20;;;;;;;;;;4988159;28;20030;-72
2022/08/28 03:37:20;;;;;;;10.43;3.95;;;;;;;;;;4984171;28;20023;-73
2022/08/28 03:39:46;;;;;;;13.30;4.18;;;;;;;;;;4981074;28;20030;-73
2022/08/28 03:42:12;;;;;;;9.50;4.07;;;;;;;;;;4985463;28;20035;-73
2022/08/28 03:44:39;;;;;;;11.32;3.50;;;;;;;;;;4989515;28;20058;-73
2022/08/28 03:47:05;;;;;;;8.98;3.72;;;;;;;;;;4977191;28;20453;-72
2022/08/28 03:49:31;;;;;;;9.95;3.45;;;;;;;;;;4961170;28;20030;-74
2022/08/28 03:51:58;;;;;;;10.23;3.80;;;;;;;;;;4986229;28;20080;-73
2022/08/28 03:54:24;;;;;;;12.32;4.28;;;;;;;;;;4980730;28;20034;-74
2022/08/28 03:56:51;;;;;;;8.80;3.80;;;;;;;;;;4982526;28;20548;-74
2022/08/28 03:59:19;;;;;;;11.38;3.70;;;;;;;;;;4985183;28;20080;-73
2022/08/28 04:01:45;;;;;;;8.40;3.58;;;;;;;;;;4984674;28;20084;-73
2022/08/28 04:04:11;;;;;;;6.78;3.00;;;;;;;;;;4971196;28;20031;-74
2022/08/28 04:06:38;;;;;;;8.85;3.85;;;;;;;;;;4975165;28;20033;-72
2022/08/28 04:09:04;;;;;;;10.18;3.65;;;;;;;;;;4980921;28;20054;-72
2022/08/28 04:11:30;;;;;;;9.85;3.75;;;;;;;;;;4985295;28;20078;-73
2022/08/28 04:13:57;;;;;;;8.45;3.80;;;;;;;;;;4981246;28;20509;-72
2022/08/28 04:16:23;;;;;;;8.13;3.33;;;;;;;;;;4972327;28;20061;-72
2022/08/28 04:18:50;;;;;;;10.73;3.88;;;;;;;;;;4982188;28;20470;-72
2022/08/28 04:21:17;;;;;;;9.98;3.10;;;;;;;;;;4971365;28;20026;-73
2022/08/28 04:23:44;;;;;;;8.50;3.40;;;;;;;;;;4977594;28;20038;-73
2022/08/28 04:26:12;;;;;;;11.95;3.70;;;;;;;;;;4990463;28;20014;-75
2022/08/28 04:28:39;;;;;;;10.48;3.15;;;;;;;;;;4977767;28;20078;-73
2022/08/28 04:31:06;;;;;;;8.77;3.05;;;;;;;;;;4970109;28;20116;-73
2022/08/28 04:33:33;;;;;;;11.50;3.33;;;;;;;;;;4981803;28;20022;-73
2022/08/28 04:36:01;;;;;;;10.15;3.20;;;;;;;;;;4962934;28;20057;-73
2022/08/28 04:38:28;;;;;;;7.47;4.22;;;;;;;;;;4985341;28;20030;-73
2022/08/28 04:40:54;;;;;;;16.17;4.10;;;;;;;;;;4955193;28;20401;-73
2022/08/28 04:43:20;;;;;;;13.40;3.95;;;;;;;;;;4974888;28;20105;-72
2022/08/28 04:45:46;;;;;;;10.38;3.80;;;;;;;;;;4976934;28;20023;-72
2022/08/28 04:48:12;;;;;;;10.88;4.00;;;;;;;;;;4973765;28;20093;-72
2022/08/28 04:50:43;;;;;;;9.02;3.42;;;;;;;;;;4964441;28;20026;-72
2022/08/28 04:53:09;;;;;;;9.82;3.80;;;;;;;;;;4986047;28;20093;-72
2022/08/28 04:55:50;;;;;;;8.00;3.10;;;;;;;;;;4978778;28;20119;-73
2022/08/28 04:58:16;;;;;;;8.40;3.30;;;;;;;;;;4973582;28;20017;-73
2022/08/28 05:00:44;;;;;;;11.43;3.78;;;;;;;;;;4979557;28;20141;-73
2022/08/28 05:03:10;;;;;;;12.98;4.40;;;;;;;;;;4985510;28;20473;-73
2022/08/28 05:05:44;;;;;;;8.18;3.00;;;;;;;;;;4988180;28;20031;-73
2022/08/28 05:08:10;;;;;;;9.68;3.35;;;;;;;;;;4988205;28;20018;-72
2022/08/28 05:10:36;;;;;;;10.57;3.53;;;;;;;;;;4978356;28;20108;-73
2022/08/28 05:13:07;;;;;;;9.45;3.60;;;;;;;;;;4991348;28;20031;-72
2022/08/28 05:15:33;;;;;;;11.02;3.50;;;;;;;;;;4986430;28;20090;-73
2022/08/28 05:17:59;;;;;;;10.55;3.47;;;;;;;;;;4974548;28;20027;-73
2022/08/28 05:20:26;;;;;;;10.68;3.17;;;;;;;;;;4988070;28;20042;-72
2022/08/28 05:22:52;;;;;;;14.02;4.22;;;;;;;;;;4976214;28;20033;-71
2022/08/28 05:25:18;;;;;;;8.35;3.38;;;;;;;;;;4983189;28;20022;-72
2022/08/28 05:27:44;;;;;;;15.02;3.35;;;;;;;;;;4983361;28;20034;-73
2022/08/28 05:30:10;;;;;;;10.38;4.43;;;;;;;;;;4983736;28;20092;-72
2022/08/28 05:32:36;;;;;;;8.77;3.22;;;;;;;;;;4984805;28;20050;-73
2022/08/28 05:35:03;;;;;;;10.27;3.47;;;;;;;;;;4982829;28;20018;-73
2022/08/28 05:37:29;;;;;;;8.18;2.97;;;;;;;;;;4983823;28;20504;-73
2022/08/28 05:39:55;;;;;;;11.93;3.28;;;;;;;;;;4980034;28;20084;-73
2022/08/28 05:42:21;;;;;;;15.63;3.95;;;;;;;;;;4984198;28;20042;-73
2022/08/28 05:44:47;;;;;;;11.93;3.88;;;;;;;;;;4984196;28;20061;-72
2022/08/28 05:47:15;;;;;;;8.73;3.22;;;;;;;;;;4983492;28;20047;-73
2022/08/28 05:49:41;;;;;;;8.18;2.92;;;;;;;;;;4982362;28;20026;-72
2022/08/28 05:52:07;;;;;;;9.20;3.15;;;;;;;;;;4983538;28;20026;-72
2022/08/28 05:54:34;;;;;;;11.27;3.05;;;;;;;;;;4982386;28;20038;-73
2022/08/28 05:57:00;;;;;;;9.43;3.08;;;;;;;;;;4983474;28;20051;-73
2022/08/28 05:59:26;;;;;;;8.40;3.25;;;;;;;;;;4983738;28;20492;-73
2022/08/28 06:01:52;;;;;;;7.20;3.13;;;;;;;;;;4983832;28;20039;-72
2022/08/28 06:04:21;;;;;;;11.25;3.08;;;;;;;;;;4983889;28;20050;-72
2022/08/28 06:06:48;;;;;;;11.18;2.90;;;;;;;;;;4984474;28;20026;-72
2022/08/28 06:09:21;;;;;;;9.82;2.40;;;;;;;;;;4983076;28;20381;-72
2022/08/28 06:11:48;;;;;;;8.70;2.83;;;;;;;;;;4981457;28;20113;-73
2022/08/28 06:14:16;;;;;;;15.52;3.13;;;;;;;;;;4982887;28;20033;-73
2022/08/28 06:16:44;;;;;;;10.20;3.17;;;;;;;;;;4983571;28;20062;-73
2022/08/28 06:19:10;;;;;;;11.48;3.20;;;;;;;;;;4976409;28;20556;-74
2022/08/28 06:21:37;;;;;;;9.93;3.78;;;;;;;;;;4979195;28;20038;-74
2022/08/28 06:24:04;;;;;;;13.13;3.88;;;;;;;;;;4977639;28;20037;-74
2022/08/28 06:26:30;;;;;;;7.57;3.10;;;;;;;;;;4976560;28;20050;-73
2022/08/28 06:29:00;;;;;;;9.40;2.85;;;;;;;;;;4988414;28;20050;-74
2022/08/28 06:31:26;;;;;;;6.60;2.53;;;;;;;;;;4980434;28;20026;-73
2022/08/28 06:33:56;;;;;;;11.88;2.55;;;;;;;;;;4982293;28;20028;-72
2022/08/28 06:36:23;;;;;;;9.45;3.00;;;;;;;;;;4982256;28;20054;-72
2022/08/28 06:38:49;;;;;;;6.00;2.10;;;;;;;;;;4987508;28;20022;-73
2022/08/28 06:41:15;;;;;;;9.05;2.78;;;;;;;;;;4983320;28;20034;-73
2022/08/28 06:43:43;;;;;;;7.70;2.33;;;;;;;;;;4984957;28;20128;-74
2022/08/28 06:46:10;;;;;;;8.45;2.72;;;;;;;;;;4987551;28;20057;-74
2022/08/28 06:48:36;;;;;;;13.30;2.63;;;;;;;;;;4984862;28;20046;-74
2022/08/28 06:51:06;;;;;;;12.60;2.80;;;;;;;;;;4955410;28;20030;-72
2022/08/28 06:53:32;;;;;;;10.40;2.58;;;;;;;;;;4975594;28;20142;-74
2022/08/28 06:56:00;;;;;;;9.85;2.80;;;;;;;;;;4981835;28;20038;-74
2022/08/28 06:58:26;;;;;;;8.80;2.28;;;;;;;;;;4984196;28;20027;-73
2022/08/28 07:01:03;;;;;;;7.15;2.28;;;;;;;;;;4959583;28;20082;-74
2022/08/28 07:03:29;;;;;;;6.40;1.90;;;;;;;;;;4982873;28;20026;-74
2022/08/28 07:05:57;;;;;;;8.50;1.85;;;;;;;;;;4982492;28;20022;-74
2022/08/28 07:08:24;;;;;;;6.03;2.50;;;;;;;;;;4981878;28;20901;-73
2022/08/28 07:10:50;;;;;;;7.45;2.30;;;;;;;;;;4982224;28;20068;-72
2022/08/28 07:13:16;;;;;;;7.28;1.92;;;;;;;;;;4982388;28;20423;-73
2022/08/28 07:15:43;;;;;;;9.50;1.95;;;;;;;;;;4981465;28;20034;-73
2022/08/28 07:18:09;;;;;;;7.80;2.25;;;;;;;;;;4980544;28;20022;-73
2022/08/28 07:20:35;;;;;;;7.90;2.35;;;;;;;;;;4977644;28;20035;-73
2022/08/28 07:23:01;;;;;;;6.45;2.13;;;;;;;;;;4979293;28;20034;-73
2022/08/28 07:25:28;;;;;;;7.95;2.25;;;;;;;;;;4980665;28;20022;-73
2022/08/28 07:27:54;;;;;;;5.53;1.73;;;;;;;;;;4979264;28;20060;-73
2022/08/28 07:30:20;;;;;;;10.77;3.33;;;;;;;;;;4979893;28;20596;-73
2022/08/28 07:32:48;;;;;;;8.25;2.67;;;;;;;;;;4972128;28;20058;-73
2022/08/28 07:35:15;;;;;;;7.00;2.35;;;;;;;;;;4979227;28;20673;-73
2022/08/28 07:37:41;;;;;;;7.15;2.03;;;;;;;;;;4979744;28;20050;-72
2022/08/28 07:40:08;;;;;;;5.07;1.90;;;;;;;;;;4982106;28;20046;-73
2022/08/28 07:45:19;;;;;;;10.25;2.55;;;;;;;;;;4979843;28;20072;-72
2022/08/28 07:47:45;;;;;;;5.22;1.67;;;;;;;;;;4980105;28;20057;-73
2022/08/28 07:50:12;;;;;;;7.13;1.40;;;;;;;;;;4982371;28;20099;-72
2022/08/28 07:52:38;;;;;;;9.85;2.08;;;;;;;;;;4983018;28;20065;-72
2022/08/28 07:55:05;;;;;;;8.05;2.15;;;;;;;;;;4986503;28;20046;-71
2022/08/28 07:57:33;;;;;;;8.82;2.22;;;;;;;;;;4978359;28;20105;-70
2022/08/28 07:59:59;;;;;;;4.57;1.52;;;;;;;;;;4981669;28;20061;-71
2022/08/28 08:02:25;;;;;;;8.68;1.88;;;;;;;;;;4978909;28;20035;-71
2022/08/28 08:04:51;;;;;;;6.35;1.27;;;;;;;;;;4982214;28;20088;-71
2022/08/28 08:07:19;;;;;;;5.15;1.25;;;;;;;;;;4983039;28;20041;-71
2022/08/28 08:09:45;;;;;;;7.38;1.98;;;;;;;;;;4985039;28;20110;-71
2022/08/28 08:12:12;;;;;;;6.50;2.00;;;;;;;;;;4980198;28;20070;-72
2022/08/28 08:14:39;;;;;;;5.75;1.73;;;;;;;;;;4974800;28;20034;-70
2022/08/28 08:17:05;;;;;;;8.00;1.55;;;;;;;;;;4981324;28;20106;-71
2022/08/28 08:19:31;;;;;;;9.20;2.17;;;;;;;;;;4971662;28;20569;-69
2022/08/28 08:21:58;;;;;;;6.35;1.55;;;;;;;;;;4978434;28;20034;-70
2022/08/28 08:24:25;;;;;;;5.95;1.17;;;;;;;;;;4989944;28;20555;-71
2022/08/28 08:26:52;;;;;;;6.32;1.83;;;;;;;;;;4978371;28;20019;-72
2022/08/28 08:29:18;;;;;;;6.05;1.98;;;;;;;;;;4962463;28;20027;-74
2022/08/28 08:31:44;;;;;;;5.22;1.60;;;;;;;;;;4983218;28;20084;-73
2022/08/28 08:34:10;;;;;;;5.72;1.30;;;;;;;;;;4972377;28;20030;-73
2022/08/28 08:36:37;;;;;;;5.88;1.42;;;;;;;;;;4962735;28;20446;-72
2022/08/28 08:39:04;;;;;;;7.15;2.22;;;;;;;;;;4970544;28;20035;-72
2022/08/28 08:41:30;;;;;;;6.93;1.83;;;;;;;;;;4966883;28;20130;-73
2022/08/28 08:44:00;;;;;;;6.22;1.60;;;;;;;;;;4978041;28;20030;-72
2022/08/28 08:46:34;;;;;;;7.80;1.92;;;;;;;;;;4979105;28;20086;-74
2022/08/28 08:49:02;;;;;;;8.40;1.90;;;;;;;;;;4969531;28;20026;-73
2022/08/28 08:51:37;;;;;;;4.55;1.58;;;;;;;;;;4973179;28;20045;-75
2022/08/28 08:54:05;;;;;;;7.82;2.33;;;;;;;;;;4984403;28;20033;-76
2022/08/28 08:56:32;;;;;;;5.22;1.30;;;;;;;;;;4985004;28;20050;-77
2022/08/28 08:59:00;;;;;;;9.05;1.73;;;;;;;;;;4982252;28;20056;-74
2022/08/28 09:01:29;;;;;;;9.77;2.15;;;;;;;;;;4988611;28;20049;-73
2022/08/28 09:04:08;;;;;;;6.32;1.50;;;;;;;;;;4960269;28;20035;-74
2022/08/28 09:06:54;;;;;;;8.52;1.75;;;;;;;;;;4978554;28;20114;-74
2022/08/28 09:09:26;;;;;;;6.85;1.48;;;;;;;;;;4955673;28;20038;-74
2022/08/28 09:11:53;;;;;;;7.05;1.60;;;;;;;;;;4971079;28;20081;-75
2022/08/28 09:14:19;;;;;;;3.47;1.40;;;;;;;;;;4978193;28;20033;-74
2022/08/28 09:16:46;;;;;;;5.95;1.80;;;;;;;;;;4985287;28;20018;-74
2022/08/28 09:19:16;;;;;;;8.88;1.50;;;;;;;;;;4976250;28;20026;-74
2022/08/28 09:21:43;;;;;;;5.05;1.27;;;;;;;;;;4979761;28;20046;-74
2022/08/28 09:24:17;;;;;;;3.85;1.33;;;;;;;;;;4976980;28;20027;-74
2022/08/28 09:26:50;;;;;;;5.97;1.30;;;;;;;;;;4985393;28;20061;-73
2022/08/28 09:29:18;;;;;;;7.10;1.33;;;;;;;;;;4983361;28;20042;-74
2022/08/28 09:31:44;;;;;;;4.85;1.30;;;;;;;;;;4986280;28;20033;-75
2022/08/28 09:34:25;;;;;;;5.30;1.40;;;;;;;;;;4976178;28;20133;-74
2022/08/28 09:36:52;;;;;;;5.20;1.25;;;;;;;;;;4972210;28;20030;-74
2022/08/28 09:39:18;;;;;;;7.20;1.50;;;;;;;;;;4980796;28;20062;-73
2022/08/28 09:44:56;;;;;;;6.90;1.70;;;;;;;;;;4973651;28;20120;-74
2022/08/28 09:47:40;;;;;;;5.18;1.33;;;;;;;;;;4971450;28;20513;-74
2022/08/28 09:50:15;;;;;;;7.07;1.48;;;;;;;;;;4970291;28;20084;-74
2022/08/28 09:52:41;;;;;;;3.20;1.20;;;;;;;;;;4988370;28;20101;-76
2022/08/28 09:55:10;;;;;;;4.00;1.20;;;;;;;;;;4975799;28;20027;-73
2022/08/28 09:57:36;;;;;;;7.82;1.60;;;;;;;;;;4969861;28;20026;-75
2022/08/28 10:00:04;;;;;;;6.22;1.67;;;;;;;;;;4987016;28;20078;-75
2022/08/28 10:02:57;;;;;;;3.72;1.33;;;;;;;;;;4978347;28;20038;-73
2022/08/28 10:05:31;;;;;;;4.85;1.20;;;;;;;;;;4975453;28;20038;-73
2022/08/28 10:08:00;;;;;;;4.03;1.13;;;;;;;;;;4992099;28;20112;-74
2022/08/28 10:10:38;;;;;;;5.47;1.67;;;;;;;;;;4981316;28;20084;-74
2022/08/28 10:13:14;;;;;;;4.57;1.40;;;;;;;;;;4992267;28;20109;-74
2022/08/28 10:15:40;;;;;;;3.88;1.10;;;;;;;;;;4987364;28;20050;-75
2022/08/28 10:18:12;;;;;;;4.70;1.40;;;;;;;;;;4984938;28;20385;-74
2022/08/28 10:20:39;;;;;;;5.93;1.58;;;;;;;;;;4985266;28;20035;-74
2022/08/28 10:23:05;;;;;;;3.65;1.30;;;;;;;;;;4972890;28;20023;-74
2022/08/28 10:25:40;;;;;;;4.05;1.70;;;;;;;;;;4983199;28;20118;-74
2022/08/28 10:28:12;;;;;;;4.45;1.20;;;;;;;;;;4979966;28;20493;-74
2022/08/28 10:31:11;;;;;;;4.63;1.48;;;;;;;;;;4977449;28;20397;-74
2022/08/28 10:33:49;;;;;;;3.83;1.02;;;;;;;;;;4940057;28;20073;-75
2022/08/28 10:36:18;;;;;;;7.30;1.65;;;;;;;;;;4987840;28;20022;-75
2022/08/28 10:38:47;;;;;;;8.20;1.63;;;;;;;;;;4992521;28;20031;-74
2022/08/28 10:41:29;;;;;;;4.80;1.30;;;;;;;;;;4979779;28;20763;-74
2022/08/28 10:43:56;;;;;;;5.68;1.65;;;;;;;;;;4992384;28;20038;-73
2022/08/28 10:46:23;;;;;;;4.90;1.27;;;;;;;;;;4975405;28;20110;-74
2022/08/28 10:48:54;;;;;;;5.30;1.50;;;;;;;;;;4972559;28;20057;-75
2022/08/28 10:51:34;;;;;;;7.10;1.15;;;;;;;;;;4984331;28;20577;-73
2022/08/28 10:54:07;;;;;;;3.50;1.10;;;;;;;;;;4954704;28;20544;-74
2022/08/28 10:56:42;;;;;;;4.88;1.30;;;;;;;;;;4984550;28;20687;-73
2022/08/28 10:59:08;;;;;;;3.45;1.35;;;;;;;;;;4973521;28;20065;-73
2022/08/28 11:01:39;;;;;;;7.22;1.35;;;;;;;;;;4986257;28;20074;-73
2022/08/28 11:04:09;;;;;;;3.72;1.20;;;;;;;;;;4986678;28;20050;-74
2022/08/28 11:06:50;;;;;;;5.93;1.55;;;;;;;;;;4980680;28;20023;-75
2022/08/28 11:09:23;;;;;;;6.40;1.48;;;;;;;;;;4991151;28;20027;-75
2022/08/28 11:11:51;;;;;;;5.93;2.08;;;;;;;;;;4982714;28;20449;-74
2022/08/28 11:14:27;;;;;;;7.07;1.48;;;;;;;;;;4981832;28;20069;-73
2022/08/28 11:16:55;;;;;;;4.60;1.75;;;;;;;;;;4982291;28;20035;-74
2022/08/28 11:19:30;;;;;;;5.68;1.30;;;;;;;;;;4984216;28;20033;-73
2022/08/28 11:22:08;;;;;;;5.57;1.33;;;;;;;;;;4979579;28;20062;-73
2022/08/28 11:24:43;;;;;;;11.18;1.90;;;;;;;;;;4978859;28;20093;-74
2022/08/28 11:27:19;;;;;;;5.05;1.05;;;;;;;;;;4982637;28;20026;-74
2022/08/28 11:30:03;;;;;;;6.53;1.25;;;;;;;;;;4979700;28;20030;-72
2022/08/28 11:32:32;;;;;;;6.43;1.42;;;;;;;;;;4981502;28;20500;-72
2022/08/28 11:34:58;;;;;;;5.18;1.67;;;;;;;;;;4978961;28;20019;-73
2022/08/28 11:37:48;;;;;;;5.60;1.30;;;;;;;;;;4979876;28;20074;-73
2022/08/28 11:40:17;;;;;;;4.80;0.90;;;;;;;;;;4983470;28;20022;-73
2022/08/28 11:42:48;;;;;;;5.83;1.37;;;;;;;;;;4979837;28;20026;-73
2022/08/28 11:45:34;;;;;;;5.20;1.20;;;;;;;;;;4982019;28;20086;-75
2022/08/28 11:48:00;;;;;;;5.88;1.92;;;;;;;;;;4944266;28;20081;-74
2022/08/28 11:50:28;;;;;;;7.13;1.55;;;;;;;;;;4980092;28;20026;-74
2022/08/28 11:53:01;;;;;;;6.00;1.40;;;;;;;;;;4981614;28;20027;-74
2022/08/28 11:55:46;;;;;;;7.03;1.60;;;;;;;;;;4978375;28;20026;-75
2022/08/28 11:58:12;;;;;;;6.53;1.25;;;;;;;;;;4983423;28;20080;-75
2022/08/28 12:00:56;;;;;;;10.43;1.67;;;;;;;;;;4980495;28;20444;-74
2022/08/28 12:03:35;;;;;;;10.52;1.38;;;;;;;;;;4980520;28;20042;-72
2022/08/28 12:06:02;;;;;;;5.38;1.40;;;;;;;;;;4980007;28;20034;-72
2022/08/28 12:08:46;;;;;;;12.70;2.22;;;;;;;;;;4980367;28;20018;-72
2022/08/28 12:11:32;;;;;;;5.45;1.48;;;;;;;;;;4983571;28;20041;-73
2022/08/28 12:13:59;;;;;;;8.85;1.33;;;;;;;;;;4972902;28;20057;-73
2022/08/28 12:16:25;;;;;;;4.13;1.23;;;;;;;;;;4971894;28;20085;-73
2022/08/28 12:18:51;;;;;;;4.50;1.48;;;;;;;;;;4978432;28;20030;-73
2022/08/28 12:21:20;;;;;;;8.50;1.80;;;;;;;;;;4986643;28;20065;-74
2022/08/28 12:24:12;;;;;;;6.65;1.80;;;;;;;;;;4985471;28;20061;-76
2022/08/28 12:26:41;;;;;;;7.57;1.20;;;;;;;;;;4971656;28;20031;-73
2022/08/28 12:29:19;;;;;;;8.27;2.25;;;;;;;;;;4974655;28;20061;-74
2022/08/28 12:32:11;;;;;;;5.97;1.58;;;;;;;;;;4986828;28;20058;-73
2022/08/28 12:34:43;;;;;;;5.05;1.98;;;;;;;;;;4978402;28;20152;-74
2022/08/28 12:37:27;;;;;;;4.63;1.40;;;;;;;;;;4983354;28;20039;-73
2022/08/28 12:39:55;;;;;;;6.85;1.40;;;;;;;;;;4977618;28;20389;-73
2022/08/28 12:42:26;;;;;;;7.47;1.60;;;;;;;;;;4990517;28;20070;-74
2022/08/28 12:44:52;;;;;;;;;;;;;;;;;;4982856;28;20030;-73
2022/08/28 12:47:21;;;;;;;8.80;1.50;;;;;;;;;;4979159;28;20423;-75
2022/08/28 12:49:48;;;;;;;3.60;1.00;;;;;;;;;;4981587;28;20034;-74
2022/08/28 12:52:17;;;;;;;7.38;1.77;;;;;;;;;;4979538;28;20094;-76
2022/08/28 12:54:44;;;;;;;7.65;1.52;;;;;;;;;;4980478;28;20365;-76
2022/08/28 12:57:11;;;;;;;5.20;1.20;;;;;;;;;;4982722;28;20437;-75
2022/08/28 12:59:39;;;;;;;7.72;1.70;;;;;;;;;;4974229;28;20456;-74
2022/08/28 13:02:20;;;;;;;4.97;1.23;;;;;;;;;;4978026;28;20035;-74
2022/08/28 13:04:58;;;;;;;3.80;1.40;;;;;;;;;;4980335;28;20568;-75
2022/08/28 13:07:30;;;;;;;6.35;1.27;;;;;;;;;;4981660;28;20473;-75
2022/08/28 13:09:57;;;;;;;3.72;1.33;;;;;;;;;;4986446;28;20125;-75
2022/08/28 13:12:25;;;;;;;6.00;2.30;;;;;;;;;;4964214;28;20030;-74
2022/08/28 13:14:52;;;;;;;3.42;1.13;;;;;;;;;;4986886;28;20088;-73
2022/08/28 13:17:36;;;;;;;3.53;1.33;;;;;;;;;;4979117;28;20026;-74
2022/08/28 13:20:05;;;;;;;3.03;1.10;;;;;;;;;;4986239;28;20117;-74
2022/08/28 13:22:33;;;;;;;6.28;1.60;;;;;;;;;;4980044;28;20388;-75
2022/08/28 13:25:01;;;;;;;4.63;1.35;;;;;;;;;;4985169;28;20022;-74
2022/08/28 13:27:27;;;;;;;6.35;1.40;;;;;;;;;;4980236;28;20050;-75
2022/08/28 13:29:53;;;;;;;4.75;1.58;;;;;;;;;;4970010;28;20147;-75
2022/08/28 13:32:19;;;;;;;4.38;1.48;;;;;;;;;;4978233;28;20416;-76
2022/08/28 13:35:04;;;;;;;6.45;1.50;;;;;;;;;;4991399;28;20019;-74
2022/08/28 13:37:41;;;;;;;5.60;1.50;;;;;;;;;;4975784;28;20412;-74
2022/08/28 13:40:08;;;;;;;2.50;1.00;;;;;;;;;;4974146;28;20091;-75
2022/08/28 13:42:34;;;;;;;2.85;1.00;;;;;;;;;;4981309;28;20030;-74
2022/08/28 13:45:00;;;;;;;3.35;1.30;;;;;;;;;;4992764;28;20076;-74
2022/08/28 13:47:26;;;;;;;5.20;1.75;;;;;;;;;;4979910;28;20043;-74
2022/08/28 13:49:52;;;;;;;4.47;1.83;;;;;;;;;;4992506;28;20492;-74
2022/08/28 13:52:18;;;;;;;4.93;1.67;;;;;;;;;;4979569;28;20027;-75
2022/08/28 13:54:44;;;;;;;6.10;1.40;;;;;;;;;;4973033;28;20066;-75
2022/08/28 13:57:12;;;;;;;2.72;1.17;;;;;;;;;;4983132;28;20031;-73
2022/08/28 13:59:38;;;;;;;4.30;1.40;;;;;;;;;;4980371;28;20038;-73
2022/08/28 14:04:52;;;;;;;6.03;1.27;;;;;;;;;;4973565;28;20065;-74
2022/08/28 14:07:18;;;;;;;7.45;1.20;;;;;;;;;;4979707;28;20058;-74
2022/08/28 14:09:44;;;;;;;5.53;1.60;;;;;;;;;;4977160;28;20034;-73
2022/08/28 14:12:10;;;;;;;4.65;1.30;;;;;;;;;;4977011;28;20026;-73
2022/08/28 14:14:37;;;;;;;6.35;1.83;;;;;;;;;;4977580;28;20023;-73
2022/08/28 14:17:04;;;;;;;4.63;1.40;;;;;;;;;;4973035;28;20097;-74
2022/08/28 14:19:30;;;;;;;5.97;1.80;;;;;;;;;;4976653;28;20030;-75
2022/08/28 14:21:56;;;;;;;4.32;1.50;;;;;;;;;;4980529;28;20027;-74
2022/08/28 14:24:23;;;;;;;5.70;1.40;;;;;;;;;;4982973;28;20114;-75
2022/08/28 14:26:52;;;;;;;6.55;1.58;;;;;;;;;;4990952;28;20401;-75
2022/08/28 14:29:18;;;;;;;5.07;1.40;;;;;;;;;;4985630;28;20027;-75
2022/08/28 14:31:44;;;;;;;4.35;1.38;;;;;;;;;;4991568;28;20022;-74
2022/08/28 14:34:15;;;;;;;3.70;1.40;;;;;;;;;;4978369;28;20062;-77
2022/08/28 14:36:42;;;;;;;3.90;1.15;;;;;;;;;;4989406;28;20026;-75
2022/08/28 14:39:11;;;;;;;6.10;1.17;;;;;;;;;;4987746;28;20066;-75
2022/08/28 14:41:37;;;;;;;4.72;1.30;;;;;;;;;;4976568;28;20073;-74
2022/08/28 14:44:03;;;;;;;6.72;1.65;;;;;;;;;;4984021;28;20075;-74
2022/08/28 14:46:34;;;;;;;4.53;1.88;;;;;;;;;;4978263;28;20108;-76
2022/08/28 14:49:02;;;;;;;6.80;1.85;;;;;;;;;;4984605;28;20054;-76
2022/08/28 14:51:30;;;;;;;8.63;1.65;;;;;;;;;;4982557;28;20239;-75
2022/08/28 14:53:57;;;;;;;6.85;1.95;;;;;;;;;;4979958;28;20025;-76
2022/08/28 14:56:23;;;;;;;4.63;1.30;;;;;;;;;;4983050;28;20075;-75
2022/08/28 14:58:49;;;;;;;4.57;1.35;;;;;;;;;;4981437;28;20177;-75